createdAt,value
2023-11-30T00:00:30.230Z,645.00
2023-11-30T00:01:30.258Z,647.00
2023-11-30T00:02:30.154Z,646.00
2023-11-30T00:03:30.223Z,647.00
2023-11-30T00:04:30.139Z,648.00
2023-11-30T00:05:30.154Z,647.00
2023-11-30T00:06:30.137Z,645.00
2023-11-30T00:07:30.115Z,643.00
2023-11-30T00:08:30.085Z,646.00
2023-11-30T00:09:30.104Z,642.00
2023-11-30T00:10:30.081Z,644.00
2023-11-30T00:11:30.093Z,647.00
2023-11-30T00:12:30.069Z,643.00
2023-11-30T00:13:30.054Z,643.00
2023-11-30T00:14:30.036Z,642.00
2023-11-30T00:15:30.069Z,646.00
2023-11-30T00:16:30.084Z,644.00
2023-11-30T00:17:30.050Z,643.00
2023-11-30T00:18:30.132Z,646.00
2023-11-30T00:19:30.005Z,645.00
2023-11-30T00:20:29.995Z,641.00
2023-11-30T00:21:30.021Z,640.00
2023-11-30T00:22:29.970Z,642.00
2023-11-30T00:23:29.973Z,642.00
2023-11-30T00:24:30.019Z,642.00
2023-11-30T00:25:29.963Z,641.00
2023-11-30T00:26:29.957Z,641.00
2023-11-30T00:27:29.939Z,636.00
2023-11-30T00:28:29.917Z,639.00
2023-11-30T00:29:29.926Z,641.00
2023-11-30T00:30:29.949Z,642.00
2023-11-30T00:31:29.931Z,641.00
2023-11-30T00:32:29.923Z,641.00
2023-11-30T00:33:29.888Z,634.00
2023-11-30T00:34:29.899Z,638.00
2023-11-30T00:35:30.656Z,642.00
2023-11-30T00:36:29.908Z,642.00
2023-11-30T00:37:29.853Z,636.00
2023-11-30T00:38:29.842Z,640.00
2023-11-30T00:39:29.907Z,636.00
2023-11-30T00:40:29.820Z,638.00
2023-11-30T00:41:29.843Z,638.00
2023-11-30T00:42:29.869Z,642.00
2023-11-30T00:43:29.809Z,639.00
2023-11-30T00:44:29.786Z,640.00
2023-11-30T00:45:29.872Z,638.00
2023-11-30T00:46:29.817Z,638.00
2023-11-30T00:47:29.782Z,639.00
2023-11-30T00:48:29.832Z,638.00
2023-11-30T00:49:29.804Z,637.00
2023-11-30T00:50:29.754Z,637.00
2023-11-30T00:51:29.755Z,636.00
2023-11-30T00:52:29.766Z,639.00
2023-11-30T00:53:29.712Z,636.00
2023-11-30T00:54:29.778Z,642.00
2023-11-30T00:55:29.713Z,633.00
2023-11-30T00:56:29.680Z,635.00
2023-11-30T00:57:29.718Z,634.00
2023-11-30T00:58:29.671Z,633.00
2023-11-30T00:59:29.713Z,633.00
2023-11-30T01:00:29.719Z,634.00
2023-11-30T01:01:29.682Z,634.00
2023-11-30T01:02:29.699Z,637.00
2023-11-30T01:03:29.779Z,635.00
2023-11-30T01:04:29.612Z,635.00
2023-11-30T01:05:29.638Z,631.00
2023-11-30T01:06:29.655Z,636.00
2023-11-30T01:07:29.612Z,632.00
2023-11-30T01:08:29.594Z,636.00
2023-11-30T01:09:29.661Z,632.00
2023-11-30T01:10:29.573Z,631.00
2023-11-30T01:11:29.574Z,631.00
2023-11-30T01:12:29.589Z,631.00
2023-11-30T01:13:29.543Z,631.00
2023-11-30T01:14:29.530Z,633.00
2023-11-30T01:15:29.560Z,637.00
2023-11-30T01:16:29.514Z,633.00
2023-11-30T01:17:29.628Z,634.00
2023-11-30T01:18:29.698Z,633.00
2023-11-30T01:19:29.493Z,631.00
2023-11-30T01:20:29.587Z,631.00
2023-11-30T01:21:29.492Z,631.00
2023-11-30T01:22:29.465Z,633.00
2023-11-30T01:23:29.471Z,629.00
2023-11-30T01:24:29.470Z,634.00
2023-11-30T01:25:29.469Z,630.00
2023-11-30T01:26:29.448Z,634.00
2023-11-30T01:27:29.470Z,629.00
2023-11-30T01:28:29.514Z,632.00
2023-11-30T01:29:29.439Z,630.00
2023-11-30T01:30:29.419Z,628.00
2023-11-30T01:31:29.424Z,634.00
2023-11-30T01:32:29.398Z,631.00
2023-11-30T01:33:29.460Z,630.00
2023-11-30T01:34:29.380Z,630.00
2023-11-30T01:35:29.358Z,630.00
2023-11-30T01:36:29.407Z,631.00
2023-11-30T01:37:29.347Z,629.00
2023-11-30T01:38:29.343Z,627.00
2023-11-30T01:39:29.381Z,629.00
2023-11-30T01:40:29.320Z,630.00
2023-11-30T01:41:29.306Z,630.00
2023-11-30T01:42:29.353Z,631.00
2023-11-30T01:43:29.300Z,630.00
2023-11-30T01:44:29.283Z,630.00
2023-11-30T01:45:29.332Z,630.00
2023-11-30T01:46:29.283Z,625.00
2023-11-30T01:47:29.280Z,630.00
2023-11-30T01:48:29.274Z,627.00
2023-11-30T01:49:29.313Z,627.00
2023-11-30T01:50:29.255Z,629.00
2023-11-30T01:51:29.267Z,627.00
2023-11-30T01:52:29.201Z,626.00
2023-11-30T01:53:29.214Z,628.00
2023-11-30T01:54:29.247Z,627.00
2023-11-30T01:55:29.190Z,627.00
2023-11-30T01:56:29.175Z,630.00
2023-11-30T01:57:29.187Z,632.00
2023-11-30T01:58:29.173Z,627.00
2023-11-30T01:59:29.164Z,628.00
2023-11-30T02:00:29.164Z,627.00
2023-11-30T02:01:29.293Z,626.00
2023-11-30T02:02:29.179Z,628.00
2023-11-30T02:03:29.181Z,628.00
2023-11-30T02:04:29.156Z,627.00
2023-11-30T02:05:29.125Z,627.00
2023-11-30T02:06:29.113Z,627.00
2023-11-30T02:07:29.099Z,622.00
2023-11-30T02:08:29.072Z,630.00
2023-11-30T02:09:29.114Z,624.00
2023-11-30T02:10:29.058Z,627.00
2023-11-30T02:11:29.057Z,629.00
2023-11-30T02:12:29.065Z,626.00
2023-11-30T02:13:29.033Z,624.00
2023-11-30T02:14:29.018Z,626.00
2023-11-30T02:15:29.024Z,621.00
2023-11-30T02:16:29.069Z,629.00
2023-11-30T02:17:29.041Z,625.00
2023-11-30T02:18:28.997Z,629.00
2023-11-30T02:19:28.979Z,622.00
2023-11-30T02:20:28.986Z,623.00
2023-11-30T02:21:29.056Z,625.00
2023-11-30T02:22:28.961Z,623.00
2023-11-30T02:23:28.953Z,625.00
2023-11-30T02:24:29.037Z,621.00
2023-11-30T02:25:28.944Z,623.00
2023-11-30T02:26:28.935Z,621.00
2023-11-30T02:27:29.013Z,626.00
2023-11-30T02:28:28.898Z,621.00
2023-11-30T02:29:28.909Z,623.00
2023-11-30T02:30:28.897Z,624.00
2023-11-30T02:31:28.953Z,625.00
2023-11-30T02:32:28.880Z,624.00
2023-11-30T02:33:28.886Z,625.00
2023-11-30T02:34:28.840Z,621.00
2023-11-30T02:35:28.846Z,621.00
2023-11-30T02:36:28.895Z,623.00
2023-11-30T02:37:28.826Z,622.00
2023-11-30T02:38:28.835Z,622.00
2023-11-30T02:39:28.843Z,622.00
2023-11-30T02:40:28.802Z,621.00
2023-11-30T02:41:28.791Z,623.00
2023-11-30T02:42:28.810Z,621.00
2023-11-30T02:43:28.768Z,620.00
2023-11-30T02:44:28.777Z,621.00
2023-11-30T02:45:28.821Z,623.00
2023-11-30T02:46:28.781Z,623.00
2023-11-30T02:47:28.783Z,622.00
2023-11-30T02:48:28.740Z,620.00
2023-11-30T02:49:28.742Z,623.00
2023-11-30T02:50:28.737Z,622.00
2023-11-30T02:51:28.759Z,623.00
2023-11-30T02:52:28.729Z,623.00
2023-11-30T02:53:28.696Z,620.00
2023-11-30T02:54:28.690Z,619.00
2023-11-30T02:55:28.681Z,619.00
2023-11-30T02:56:28.669Z,618.00
2023-11-30T02:57:28.675Z,619.00
2023-11-30T02:58:28.660Z,624.00
2023-11-30T02:59:28.637Z,618.00
2023-11-30T03:00:28.678Z,617.00
2023-11-30T03:01:28.646Z,620.00
2023-11-30T03:02:29.658Z,617.00
2023-11-30T03:03:28.688Z,618.00
2023-11-30T03:04:29.255Z,619.00
2023-11-30T03:05:28.616Z,620.00
2023-11-30T03:06:28.621Z,620.00
2023-11-30T03:07:28.576Z,618.00
2023-11-30T03:08:28.561Z,617.00
2023-11-30T03:09:28.629Z,619.00
2023-11-30T03:10:28.537Z,618.00
2023-11-30T03:11:28.583Z,623.00
2023-11-30T03:12:28.573Z,618.00
2023-11-30T03:13:28.526Z,619.00
2023-11-30T03:14:28.506Z,620.00
2023-11-30T03:15:28.551Z,616.00
2023-11-30T03:16:28.518Z,618.00
2023-11-30T03:17:28.528Z,618.00
2023-11-30T03:18:28.605Z,619.00
2023-11-30T03:19:28.497Z,617.00
2023-11-30T03:20:28.465Z,615.00
2023-11-30T03:21:28.454Z,618.00
2023-11-30T03:22:28.440Z,620.00
2023-11-30T03:23:33.477Z,615.00
2023-11-30T03:24:28.526Z,615.00
2023-11-30T03:25:28.435Z,616.00
2023-11-30T03:26:28.402Z,616.00
2023-11-30T03:27:28.489Z,617.00
2023-11-30T03:28:28.385Z,617.00
2023-11-30T03:29:28.416Z,614.00
2023-11-30T03:30:28.430Z,614.00
2023-11-30T03:31:28.434Z,615.00
2023-11-30T03:32:28.386Z,616.00
2023-11-30T03:33:28.372Z,620.00
2023-11-30T03:34:28.343Z,618.00
2023-11-30T03:35:28.338Z,614.00
2023-11-30T03:36:28.387Z,618.00
2023-11-30T03:37:28.371Z,618.00
2023-11-30T03:38:28.415Z,616.00
2023-11-30T03:39:28.510Z,616.00
2023-11-30T03:40:28.507Z,616.00
2023-11-30T03:41:28.551Z,617.00
2023-11-30T03:42:28.643Z,616.00
2023-11-30T03:43:28.675Z,616.00
2023-11-30T03:44:28.702Z,614.00
2023-11-30T03:45:28.811Z,613.00
2023-11-30T03:46:28.825Z,615.00
2023-11-30T03:47:28.880Z,614.00
2023-11-30T03:48:28.931Z,618.00
2023-11-30T03:49:28.977Z,614.00
2023-11-30T03:50:29.015Z,612.00
2023-11-30T03:51:29.141Z,618.00
2023-11-30T03:52:29.106Z,615.00
2023-11-30T03:53:29.152Z,617.00
2023-11-30T03:54:29.223Z,613.00
2023-11-30T03:55:29.253Z,614.00
2023-11-30T03:56:29.305Z,617.00
2023-11-30T03:57:29.398Z,614.00
2023-11-30T03:58:29.433Z,613.00
2023-11-30T03:59:29.494Z,612.00
2023-11-30T04:00:29.567Z,613.00
2023-11-30T04:01:29.646Z,615.00
2023-11-30T04:02:29.705Z,616.00
2023-11-30T04:03:29.686Z,613.00
2023-11-30T04:04:29.799Z,613.00
2023-11-30T04:05:29.768Z,618.00
2023-11-30T04:06:29.881Z,613.00
2023-11-30T04:07:29.863Z,616.00
2023-11-30T04:08:29.914Z,613.00
2023-11-30T04:09:29.995Z,614.00
2023-11-30T04:10:30.009Z,614.00
2023-11-30T04:11:30.055Z,612.00
2023-11-30T04:12:30.206Z,610.00
2023-11-30T04:13:30.164Z,616.00
2023-11-30T04:14:30.217Z,611.00
2023-11-30T04:15:30.263Z,615.00
2023-11-30T04:16:30.392Z,612.00
2023-11-30T04:17:30.405Z,613.00
2023-11-30T04:18:30.502Z,613.00
2023-11-30T04:19:30.501Z,610.00
2023-11-30T04:20:40.601Z,611.00
2023-11-30T04:21:30.540Z,611.00
2023-11-30T04:22:30.542Z,612.00
2023-11-30T04:23:30.496Z,612.00
2023-11-30T04:24:30.507Z,612.00
2023-11-30T04:25:30.499Z,613.00
2023-11-30T04:26:30.495Z,612.00
2023-11-30T04:27:30.521Z,611.00
2023-11-30T04:28:30.442Z,613.00
2023-11-30T04:29:30.439Z,611.00
2023-11-30T04:30:30.499Z,614.00
2023-11-30T04:31:30.481Z,610.00
2023-11-30T04:32:30.472Z,611.00
2023-11-30T04:33:30.445Z,608.00
2023-11-30T04:34:30.394Z,614.00
2023-11-30T04:35:30.408Z,609.00
2023-11-30T04:36:30.482Z,608.00
2023-11-30T04:37:30.393Z,612.00
2023-11-30T04:38:30.409Z,613.00
2023-11-30T04:39:30.438Z,610.00
2023-11-30T04:40:30.355Z,610.00
2023-11-30T04:41:30.345Z,610.00
2023-11-30T04:42:30.354Z,608.00
2023-11-30T04:43:30.345Z,609.00
2023-11-30T04:44:30.314Z,608.00
2023-11-30T04:45:30.354Z,607.00
2023-11-30T04:46:30.336Z,610.00
2023-11-30T04:47:30.381Z,609.00
2023-11-30T04:48:30.345Z,610.00
2023-11-30T04:49:30.274Z,609.00
2023-11-30T04:50:30.260Z,611.00
2023-11-30T04:51:30.302Z,609.00
2023-11-30T04:52:30.266Z,610.00
2023-11-30T04:53:30.263Z,608.00
2023-11-30T04:54:30.290Z,612.00
2023-11-30T04:55:30.209Z,607.00
2023-11-30T04:56:30.221Z,610.00
2023-11-30T04:57:30.248Z,607.00
2023-11-30T04:58:30.200Z,608.00
2023-11-30T04:59:30.183Z,612.00
2023-11-30T05:00:30.193Z,607.00
2023-11-30T05:01:30.194Z,609.00
2023-11-30T05:02:30.249Z,612.00
2023-11-30T05:03:31.589Z,609.00
2023-11-30T05:04:30.201Z,610.00
2023-11-30T05:05:30.133Z,608.00
2023-11-30T05:06:30.190Z,606.00
2023-11-30T05:07:30.122Z,605.00
2023-11-30T05:08:30.121Z,610.00
2023-11-30T05:09:30.122Z,606.00
2023-11-30T05:10:30.087Z,606.00
2023-11-30T05:11:30.078Z,609.00
2023-11-30T05:12:30.127Z,607.00
2023-11-30T05:13:35.086Z,606.00
2023-11-30T05:14:30.067Z,607.00
2023-11-30T05:15:30.078Z,607.00
2023-11-30T05:16:30.059Z,607.00
2023-11-30T05:17:30.036Z,608.00
2023-11-30T05:18:30.036Z,609.00
2023-11-30T05:19:30.014Z,610.00
2023-11-30T05:20:30.008Z,609.00
2023-11-30T05:21:30.017Z,605.00
2023-11-30T05:22:29.984Z,608.00
2023-11-30T05:23:29.977Z,603.00
2023-11-30T05:24:30.003Z,604.00
2023-11-30T05:25:29.948Z,608.00
2023-11-30T05:26:29.947Z,608.00
2023-11-30T05:27:29.971Z,607.00
2023-11-30T05:28:31.129Z,608.00
2023-11-30T05:29:30.001Z,605.00
2023-11-30T05:30:30.000Z,609.00
2023-11-30T05:31:29.969Z,607.00
2023-11-30T05:32:29.969Z,608.00
2023-11-30T05:33:30.001Z,608.00
2023-11-30T05:34:30.033Z,605.00
2023-11-30T05:35:30.089Z,606.00
2023-11-30T05:36:30.338Z,609.00
2023-11-30T05:37:30.191Z,608.00
2023-11-30T05:38:30.232Z,606.00
2023-11-30T05:39:30.313Z,606.00
2023-11-30T05:40:30.359Z,606.00
2023-11-30T05:41:30.379Z,608.00
2023-11-30T05:42:30.456Z,607.00
2023-11-30T05:43:30.502Z,606.00
2023-11-30T05:44:30.548Z,607.00
2023-11-30T05:45:30.605Z,607.00
2023-11-30T05:46:30.643Z,608.00
2023-11-30T05:47:30.741Z,607.00
2023-11-30T05:48:30.809Z,611.00
2023-11-30T05:49:30.795Z,606.00
2023-11-30T05:50:30.865Z,607.00
2023-11-30T05:51:30.934Z,603.00
2023-11-30T05:52:30.945Z,607.00
2023-11-30T05:53:30.999Z,609.00
2023-11-30T05:54:31.155Z,607.00
2023-11-30T05:55:31.098Z,606.00
2023-11-30T05:56:31.136Z,604.00
2023-11-30T05:57:31.224Z,601.00
2023-11-30T05:58:31.253Z,607.00
2023-11-30T05:59:31.292Z,611.00
2023-11-30T06:00:31.409Z,608.00
2023-11-30T06:01:31.491Z,606.00
2023-11-30T06:02:31.454Z,607.00
2023-11-30T06:03:31.684Z,606.00
2023-11-30T06:04:31.687Z,609.00
2023-11-30T06:05:31.603Z,604.00
2023-11-30T06:06:31.750Z,609.00
2023-11-30T06:07:31.690Z,608.00
2023-11-30T06:08:31.762Z,610.00
2023-11-30T06:09:31.833Z,609.00
2023-11-30T06:10:31.847Z,609.00
2023-11-30T06:11:31.931Z,607.00
2023-11-30T06:12:31.974Z,609.00
2023-11-30T06:13:32.009Z,608.00
2023-11-30T06:14:32.044Z,609.00
2023-11-30T06:15:32.164Z,611.00
2023-11-30T06:16:32.231Z,616.00
2023-11-30T06:17:32.200Z,625.00
2023-11-30T06:18:32.266Z,614.00
2023-11-30T06:19:32.310Z,621.00
2023-11-30T06:20:32.385Z,630.00
2023-11-30T06:21:32.527Z,627.00
2023-11-30T06:22:32.468Z,626.00
2023-11-30T06:23:32.510Z,624.00
2023-11-30T06:24:32.755Z,620.00
2023-11-30T06:25:32.602Z,626.00
2023-11-30T06:26:32.674Z,621.00
2023-11-30T06:27:32.722Z,620.00
2023-11-30T06:28:32.749Z,619.00
2023-11-30T06:29:32.823Z,620.00
2023-11-30T06:30:32.923Z,618.00
2023-11-30T06:31:32.908Z,619.00
2023-11-30T06:32:32.965Z,617.00
2023-11-30T06:33:33.032Z,622.00
2023-11-30T06:34:33.060Z,625.00
2023-11-30T06:35:33.104Z,638.00
2023-11-30T06:36:33.206Z,648.00
2023-11-30T06:37:33.222Z,658.00
2023-11-30T06:38:33.265Z,657.00
2023-11-30T06:39:33.360Z,657.00
2023-11-30T06:40:33.422Z,664.00
2023-11-30T06:41:33.421Z,669.00
2023-11-30T06:42:33.526Z,697.00
2023-11-30T06:43:33.499Z,699.00
2023-11-30T06:44:33.576Z,694.00
2023-11-30T06:45:33.637Z,699.00
2023-11-30T06:46:33.680Z,710.00
2023-11-30T06:47:33.757Z,712.00
2023-11-30T06:48:33.947Z,719.00
2023-11-30T06:49:33.818Z,719.00
2023-11-30T06:50:33.894Z,721.00
2023-11-30T06:51:33.973Z,674.00
2023-11-30T06:52:33.985Z,702.00
2023-11-30T06:53:34.024Z,781.00
2023-11-30T06:54:34.176Z,797.00
2023-11-30T06:55:34.141Z,836.00
2023-11-30T06:56:34.193Z,889.00
2023-11-30T06:57:34.318Z,907.00
2023-11-30T06:58:34.304Z,898.00
2023-11-30T06:59:34.349Z,939.00
2023-11-30T07:00:34.493Z,972.00
2023-11-30T07:01:34.409Z,989.00
2023-11-30T07:02:34.615Z,990.00
2023-11-30T07:03:42.075Z,977.00
2023-11-30T07:04:35.611Z,968.00
2023-11-30T07:05:34.510Z,965.00
2023-11-30T07:06:34.605Z,946.00
2023-11-30T07:07:37.003Z,937.00
2023-11-30T07:08:34.496Z,933.00
2023-11-30T07:09:34.657Z,947.00
2023-11-30T07:10:34.474Z,931.00
2023-11-30T07:11:34.443Z,932.00
2023-11-30T07:12:34.557Z,929.00
2023-11-30T07:13:34.446Z,929.00
2023-11-30T07:14:50.268Z,939.00
2023-11-30T07:15:35.579Z,935.00
2023-11-30T07:16:34.521Z,916.00
2023-11-30T07:17:34.440Z,927.00
2023-11-30T07:18:34.424Z,920.00
2023-11-30T07:19:34.394Z,916.00
2023-11-30T07:20:34.374Z,910.00
2023-11-30T07:21:34.420Z,897.00
2023-11-30T07:22:34.372Z,893.00
2023-11-30T07:23:34.358Z,889.00
2023-11-30T07:24:34.387Z,891.00
2023-11-30T07:25:34.355Z,878.00
2023-11-30T07:26:34.432Z,878.00
2023-11-30T07:27:34.322Z,868.00
2023-11-30T07:28:34.317Z,870.00
2023-11-30T07:29:34.294Z,869.00
2023-11-30T07:30:34.354Z,877.00
2023-11-30T07:31:34.323Z,870.00
2023-11-30T07:32:34.311Z,854.00
2023-11-30T07:33:34.290Z,847.00
2023-11-30T07:34:34.254Z,843.00
2023-11-30T07:35:34.253Z,841.00
2023-11-30T07:36:34.320Z,850.00
2023-11-30T07:37:34.237Z,857.00
2023-11-30T07:38:34.215Z,855.00
2023-11-30T07:39:34.303Z,848.00
2023-11-30T07:40:34.264Z,845.00
2023-11-30T07:41:34.209Z,844.00
2023-11-30T07:42:37.531Z,853.00
2023-11-30T07:43:34.225Z,843.00
2023-11-30T07:44:34.193Z,848.00
2023-11-30T07:45:34.236Z,841.00
2023-11-30T07:46:34.192Z,853.00
2023-11-30T07:47:34.175Z,836.00
2023-11-30T07:48:34.256Z,835.00
2023-11-30T07:49:34.144Z,845.00
2023-11-30T07:50:34.119Z,832.00
2023-11-30T07:51:34.204Z,840.00
2023-11-30T07:52:34.131Z,807.00
2023-11-30T07:53:34.112Z,782.00
2023-11-30T07:54:34.133Z,742.00
2023-11-30T07:55:34.091Z,698.00
2023-11-30T07:56:34.106Z,656.00
2023-11-30T07:57:34.208Z,613.00
2023-11-30T07:58:34.069Z,600.00
2023-11-30T07:59:34.060Z,597.00
2023-11-30T08:00:34.084Z,593.00
2023-11-30T08:01:34.029Z,597.00
2023-11-30T08:02:34.030Z,601.00
2023-11-30T08:03:34.156Z,608.00
2023-11-30T08:04:34.159Z,612.00
2023-11-30T08:05:34.012Z,619.00
2023-11-30T08:06:34.186Z,630.00
2023-11-30T08:07:33.972Z,634.00
2023-11-30T08:08:33.971Z,642.00
2023-11-30T08:09:34.059Z,649.00
2023-11-30T08:10:33.967Z,656.00
2023-11-30T08:11:34.010Z,665.00
2023-11-30T08:12:34.022Z,663.00
2023-11-30T08:13:33.938Z,668.00
2023-11-30T08:14:33.933Z,659.00
2023-11-30T08:15:33.970Z,664.00
2023-11-30T08:16:33.961Z,673.00
2023-11-30T08:17:33.912Z,691.00
2023-11-30T08:18:34.056Z,698.00
2023-11-30T08:19:33.911Z,720.00
2023-11-30T08:20:33.921Z,747.00
2023-11-30T08:21:33.887Z,762.00
2023-11-30T08:22:33.952Z,774.00
2023-11-30T08:23:33.850Z,778.00
2023-11-30T08:24:33.929Z,798.00
2023-11-30T08:25:33.844Z,810.00
2023-11-30T08:26:33.813Z,830.00
2023-11-30T08:27:33.865Z,841.00
2023-11-30T08:28:33.808Z,861.00
2023-11-30T08:29:33.808Z,858.00
2023-11-30T08:30:33.807Z,870.00
2023-11-30T08:31:33.795Z,887.00
2023-11-30T08:32:33.781Z,912.00
2023-11-30T08:33:33.761Z,920.00
2023-11-30T08:34:33.751Z,933.00
2023-11-30T08:35:33.751Z,944.00
2023-11-30T08:36:33.775Z,957.00
2023-11-30T08:37:33.752Z,958.00
2023-11-30T08:38:33.729Z,970.00
2023-11-30T08:39:33.759Z,982.00
2023-11-30T08:40:33.732Z,995.00
2023-11-30T08:41:33.703Z,1003.00
2023-11-30T08:42:33.750Z,1013.00
2023-11-30T08:43:33.687Z,1025.00
2023-11-30T08:44:33.710Z,1034.00
2023-11-30T08:45:33.806Z,1048.00
2023-11-30T08:46:33.693Z,1046.00
2023-11-30T08:47:33.664Z,1053.00
2023-11-30T08:48:33.661Z,1078.00
2023-11-30T08:49:33.632Z,1089.00
2023-11-30T08:50:33.622Z,1102.00
2023-11-30T08:51:33.601Z,1102.00
2023-11-30T08:52:33.599Z,1104.00
2023-11-30T08:53:33.606Z,1108.00
2023-11-30T08:54:33.646Z,1117.00
2023-11-30T08:55:33.578Z,1127.00
2023-11-30T08:56:33.577Z,1141.00
2023-11-30T08:57:33.632Z,1144.00
2023-11-30T08:58:33.565Z,1159.00
2023-11-30T08:59:33.567Z,1167.00
2023-11-30T09:00:33.581Z,1175.00
2023-11-30T09:01:33.734Z,1185.00
2023-11-30T09:02:33.590Z,1191.00
2023-11-30T09:03:33.659Z,1198.00
2023-11-30T09:04:33.577Z,1209.00
2023-11-30T09:05:33.510Z,1205.00
2023-11-30T09:06:33.507Z,1209.00
2023-11-30T09:07:33.515Z,1215.00
2023-11-30T09:08:33.484Z,1219.00
2023-11-30T09:09:33.467Z,1229.00
2023-11-30T09:10:33.463Z,1241.00
2023-11-30T09:11:33.448Z,1254.00
2023-11-30T09:12:33.483Z,1265.00
2023-11-30T09:13:33.448Z,1273.00
2023-11-30T09:14:33.431Z,1282.00
2023-11-30T09:15:33.453Z,1282.00
2023-11-30T09:16:33.431Z,1293.00
2023-11-30T09:17:33.406Z,1300.00
2023-11-30T09:18:33.418Z,1299.00
2023-11-30T09:19:33.398Z,1311.00
2023-11-30T09:20:33.387Z,1319.00
2023-11-30T09:21:33.429Z,1327.00
2023-11-30T09:22:33.353Z,1334.00
2023-11-30T09:23:33.351Z,1340.00
2023-11-30T09:24:33.477Z,1345.00
2023-11-30T09:25:33.335Z,1354.00
2023-11-30T09:26:33.416Z,1350.00
2023-11-30T09:27:33.342Z,1370.00
2023-11-30T09:28:33.344Z,1372.00
2023-11-30T09:29:33.288Z,1379.00
2023-11-30T09:30:33.319Z,1382.00
2023-11-30T09:31:33.346Z,1396.00
2023-11-30T09:32:33.311Z,1399.00
2023-11-30T09:33:33.309Z,1397.00
2023-11-30T09:34:33.277Z,1409.00
2023-11-30T09:35:33.247Z,1418.00
2023-11-30T09:36:33.254Z,1412.00
2023-11-30T09:37:33.259Z,1422.00
2023-11-30T09:38:33.241Z,1424.00
2023-11-30T09:39:33.242Z,1435.00
2023-11-30T09:40:33.226Z,1445.00
2023-11-30T09:41:33.228Z,1422.00
2023-11-30T09:42:33.181Z,1413.00
2023-11-30T09:43:33.179Z,1428.00
2023-11-30T09:44:33.151Z,1437.00
2023-11-30T09:45:33.181Z,1444.00
2023-11-30T09:46:33.180Z,1455.00
2023-11-30T09:47:33.182Z,1473.00
2023-11-30T09:48:33.149Z,1485.00
2023-11-30T09:49:33.117Z,1476.00
2023-11-30T09:50:33.116Z,1478.00
2023-11-30T09:51:33.104Z,1491.00
2023-11-30T09:52:33.128Z,1554.00
2023-11-30T09:53:33.139Z,1547.00
2023-11-30T09:54:33.082Z,1537.00
2023-11-30T09:55:33.140Z,1531.00
2023-11-30T09:56:33.214Z,1525.00
2023-11-30T09:57:33.117Z,1524.00
2023-11-30T09:58:33.074Z,1524.00
2023-11-30T09:59:33.028Z,1512.00
2023-11-30T10:00:33.208Z,1507.00
2023-11-30T10:01:33.117Z,1502.00
2023-11-30T10:02:33.011Z,1500.00
2023-11-30T10:03:33.123Z,1503.00
2023-11-30T10:04:32.991Z,1496.00
2023-11-30T10:05:32.977Z,1496.00
2023-11-30T10:06:33.025Z,1488.00
2023-11-30T10:07:32.975Z,1478.00
2023-11-30T10:08:33.031Z,1465.00
2023-11-30T10:09:32.953Z,1444.00
2023-11-30T10:10:32.943Z,1423.00
2023-11-30T10:11:32.946Z,1412.00
2023-11-30T10:12:33.082Z,1393.00
2023-11-30T10:13:32.918Z,1377.00
2023-11-30T10:14:32.958Z,1358.00
2023-11-30T10:15:32.959Z,1350.00
2023-11-30T10:16:32.957Z,1347.00
2023-11-30T10:17:33.020Z,1324.00
2023-11-30T10:18:33.004Z,1303.00
2023-11-30T10:19:33.019Z,1290.00
2023-11-30T10:20:32.882Z,1282.00
2023-11-30T10:21:32.867Z,1269.00
2023-11-30T10:22:32.848Z,1267.00
2023-11-30T10:23:32.840Z,1250.00
2023-11-30T10:24:32.834Z,1244.00
2023-11-30T10:25:32.821Z,1223.00
2023-11-30T10:26:32.795Z,1210.00
2023-11-30T10:27:32.839Z,1205.00
2023-11-30T10:28:32.785Z,1186.00
2023-11-30T10:29:32.815Z,1181.00
2023-11-30T10:30:33.173Z,1195.00
2023-11-30T10:31:33.411Z,1212.00
2023-11-30T10:32:32.821Z,1220.00
2023-11-30T10:33:32.798Z,1203.00
2023-11-30T10:34:32.837Z,1191.00
2023-11-30T10:35:32.760Z,1155.00
2023-11-30T10:36:32.719Z,1107.00
2023-11-30T10:37:32.716Z,1071.00
2023-11-30T10:38:32.698Z,1047.00
2023-11-30T10:39:32.744Z,1020.00
2023-11-30T10:40:32.738Z,998.00
2023-11-30T10:41:32.672Z,1003.00
2023-11-30T10:42:32.688Z,999.00
2023-11-30T10:43:32.657Z,997.00
2023-11-30T10:44:32.675Z,1007.00
2023-11-30T10:45:32.714Z,1013.00
2023-11-30T10:46:32.752Z,1015.00
2023-11-30T10:47:32.838Z,1011.00
2023-11-30T10:48:32.627Z,996.00
2023-11-30T10:49:32.614Z,1012.00
2023-11-30T10:50:32.606Z,1026.00
2023-11-30T10:51:32.629Z,1026.00
2023-11-30T10:52:32.581Z,1030.00
2023-11-30T10:53:32.582Z,1028.00
2023-11-30T10:54:32.616Z,1031.00
2023-11-30T10:55:32.568Z,1035.00
2023-11-30T10:56:32.535Z,1047.00
2023-11-30T10:57:32.612Z,1051.00
2023-11-30T10:58:32.526Z,1059.00
2023-11-30T10:59:32.525Z,1069.00
2023-11-30T11:00:32.671Z,1085.00
2023-11-30T11:01:32.630Z,1089.00
2023-11-30T11:02:32.513Z,1108.00
2023-11-30T11:03:32.554Z,1115.00
2023-11-30T11:04:32.524Z,1117.00
2023-11-30T11:05:32.519Z,1125.00
2023-11-30T11:06:32.531Z,1129.00
2023-11-30T11:07:32.481Z,1132.00
2023-11-30T11:08:32.455Z,1133.00
2023-11-30T11:09:34.147Z,1136.00
2023-11-30T11:10:32.473Z,1148.00
2023-11-30T11:11:32.457Z,1152.00
2023-11-30T11:12:32.445Z,1155.00
2023-11-30T11:13:32.406Z,1161.00
2023-11-30T11:14:32.401Z,1176.00
2023-11-30T11:15:32.449Z,1194.00
2023-11-30T11:16:32.445Z,1184.00
2023-11-30T11:17:32.395Z,1198.00
2023-11-30T11:18:32.471Z,1187.00
2023-11-30T11:19:32.386Z,1232.00
2023-11-30T11:20:32.355Z,1228.00
2023-11-30T11:21:32.457Z,1235.00
2023-11-30T11:22:32.391Z,1238.00
2023-11-30T11:23:32.439Z,1241.00
2023-11-30T11:24:32.528Z,1248.00
2023-11-30T11:25:32.538Z,1257.00
2023-11-30T11:26:32.581Z,1253.00
2023-11-30T11:27:32.839Z,1269.00
2023-11-30T11:28:32.680Z,1263.00
2023-11-30T11:29:42.205Z,1289.00
2023-11-30T11:30:34.024Z,1289.00
2023-11-30T11:31:32.953Z,1290.00
2023-11-30T11:32:33.004Z,1295.00
2023-11-30T11:33:32.933Z,1301.00
2023-11-30T11:34:32.889Z,1311.00
2023-11-30T11:35:32.886Z,1323.00
2023-11-30T11:36:32.947Z,1330.00
2023-11-30T11:37:32.986Z,1328.00
2023-11-30T11:38:33.068Z,1345.00
2023-11-30T11:39:33.114Z,1347.00
2023-11-30T11:40:33.121Z,1364.00
2023-11-30T11:41:33.185Z,1341.00
2023-11-30T11:42:33.314Z,1336.00
2023-11-30T11:43:33.285Z,1333.00
2023-11-30T11:44:35.021Z,1361.00
2023-11-30T11:45:33.405Z,1362.00
2023-11-30T11:46:33.329Z,1377.00
2023-11-30T11:47:33.325Z,1391.00
2023-11-30T11:48:33.320Z,1367.00
2023-11-30T11:49:33.293Z,1348.00
2023-11-30T11:50:33.295Z,1334.00
2023-11-30T11:51:33.361Z,1330.00
2023-11-30T11:52:33.362Z,1312.00
2023-11-30T11:53:33.458Z,1297.00
2023-11-30T11:54:33.502Z,1295.00
2023-11-30T11:55:33.526Z,1296.00
2023-11-30T11:56:33.576Z,1297.00
2023-11-30T11:57:33.643Z,1317.00
2023-11-30T11:58:33.667Z,1319.00
2023-11-30T11:59:33.760Z,1321.00
2023-11-30T12:00:33.796Z,1375.00
2023-11-30T12:01:33.857Z,1401.00
2023-11-30T12:02:33.935Z,1402.00
2023-11-30T12:03:34.066Z,1394.00
2023-11-30T12:04:34.016Z,1381.00
2023-11-30T12:05:34.023Z,1360.00
2023-11-30T12:06:34.157Z,1327.00
2023-11-30T12:07:34.125Z,1295.00
2023-11-30T12:08:34.187Z,1267.00
2023-11-30T12:09:34.276Z,1233.00
2023-11-30T12:10:34.266Z,1214.00
2023-11-30T12:11:34.331Z,1193.00
2023-11-30T12:12:34.392Z,1170.00
2023-11-30T12:13:34.457Z,1156.00
2023-11-30T12:14:34.495Z,1117.00
2023-11-30T12:15:34.580Z,1087.00
2023-11-30T12:16:34.606Z,1065.00
2023-11-30T12:17:34.755Z,1051.00
2023-11-30T12:18:34.698Z,1028.00
2023-11-30T12:19:34.754Z,1003.00
2023-11-30T12:20:34.781Z,990.00
2023-11-30T12:21:34.859Z,985.00